createdAt,value
2022-11-15T00:01:19.341Z,100.00
2022-11-15T00:03:47.610Z,100.00
2022-11-15T00:06:17.006Z,100.00
2022-11-15T00:08:47.542Z,100.00
2022-11-15T00:11:15.245Z,100.00
2022-11-15T00:13:44.283Z,100.00
2022-11-15T00:16:12.480Z,100.00
2022-11-15T00:18:40.864Z,100.00
2022-11-15T00:21:10.038Z,100.00
2022-11-15T00:23:38.274Z,100.00
2022-11-15T00:26:06.280Z,100.00
2022-11-15T00:28:34.089Z,100.00
2022-11-15T00:31:04.242Z,100.00
2022-11-15T00:33:33.154Z,100.00
2022-11-15T00:36:10.180Z,100.00
2022-11-15T00:38:39.567Z,100.00
2022-11-15T00:41:10.927Z,100.00
2022-11-15T00:43:40.766Z,100.00
2022-11-15T00:46:15.286Z,100.00
2022-11-15T00:48:42.973Z,100.00
2022-11-15T00:51:10.667Z,100.00
2022-11-15T00:53:38.467Z,100.00
2022-11-15T00:56:06.580Z,100.00
2022-11-15T00:58:34.324Z,100.00
2022-11-15T01:01:10.873Z,100.00
2022-11-15T01:03:40.115Z,100.00
2022-11-15T01:06:08.533Z,100.00
2022-11-15T01:08:36.588Z,100.00
2022-11-15T01:11:05.114Z,100.00
2022-11-15T01:13:39.852Z,100.00
2022-11-15T01:16:11.345Z,100.00
2022-11-15T01:18:39.066Z,100.00
2022-11-15T01:21:08.808Z,100.00
2022-11-15T01:23:38.686Z,100.00
2022-11-15T01:26:08.424Z,100.00
2022-11-15T01:28:45.159Z,100.00
2022-11-15T01:31:16.819Z,100.00
2022-11-15T01:33:45.162Z,100.00
2022-11-15T01:36:15.770Z,100.00
2022-11-15T01:38:43.594Z,100.00
2022-11-15T01:41:17.663Z,100.00
2022-11-15T01:43:45.660Z,100.00
2022-11-15T01:46:32.950Z,100.00
2022-11-15T01:49:04.393Z,100.00
2022-11-15T01:51:35.046Z,100.00
2022-11-15T01:54:13.612Z,100.00
2022-11-15T01:56:47.286Z,100.00
2022-11-15T01:59:15.472Z,100.00
2022-11-15T02:01:45.170Z,100.00
2022-11-15T02:04:17.234Z,100.00
2022-11-15T02:06:46.210Z,100.00
2022-11-15T02:09:15.067Z,100.00
2022-11-15T02:11:43.596Z,100.00
2022-11-15T02:14:14.981Z,100.00
2022-11-15T02:16:55.197Z,100.00
2022-11-15T02:19:41.562Z,100.00
2022-11-15T02:22:24.172Z,100.00
2022-11-15T02:25:04.834Z,100.00
2022-11-15T02:28:12.702Z,100.00
2022-11-15T02:30:45.118Z,100.00
2022-11-15T02:33:23.913Z,100.00
2022-11-15T02:35:59.281Z,100.00
2022-11-15T02:38:39.444Z,100.00
2022-11-15T02:41:11.579Z,100.00
2022-11-15T02:43:59.449Z,100.00
2022-11-15T02:47:04.531Z,100.00
2022-11-15T02:49:36.155Z,100.00
2022-11-15T02:52:04.261Z,100.00
2022-11-15T02:54:34.069Z,100.00
2022-11-15T02:57:05.781Z,100.00
2022-11-15T02:59:59.923Z,100.00
2022-11-15T03:02:41.883Z,100.00
2022-11-15T03:05:19.809Z,100.00
2022-11-15T03:08:01.867Z,100.00
2022-11-15T03:10:42.952Z,100.00
2022-11-15T03:13:20.275Z,100.00
2022-11-15T03:15:57.839Z,100.00
2022-11-15T03:18:33.179Z,100.00
2022-11-15T03:21:05.650Z,100.00
2022-11-15T03:23:35.310Z,100.00
2022-11-15T03:26:03.616Z,100.00
2022-11-15T03:28:38.433Z,100.00
2022-11-15T03:31:28.185Z,100.00
2022-11-15T03:34:00.168Z,100.00
2022-11-15T03:36:29.256Z,100.00
2022-11-15T03:39:01.260Z,100.00
2022-11-15T03:41:38.465Z,100.00
2022-11-15T03:44:13.965Z,100.00
2022-11-15T03:46:44.786Z,100.00
2022-11-15T03:49:20.345Z,100.00
2022-11-15T03:51:48.259Z,100.00
2022-11-15T03:54:16.229Z,100.00
2022-11-15T03:56:43.901Z,100.00
2022-11-15T03:59:14.833Z,100.00
2022-11-15T04:01:42.511Z,100.00
2022-11-15T04:04:10.237Z,100.00
2022-11-15T04:06:39.308Z,100.00
2022-11-15T04:09:07.129Z,100.00
2022-11-15T04:11:34.807Z,100.00
2022-11-15T04:14:02.621Z,100.00
2022-11-15T04:16:30.276Z,100.00
2022-11-15T04:19:12.245Z,100.00
2022-11-15T04:22:01.209Z,100.00
2022-11-15T04:24:28.906Z,100.00
2022-11-15T04:26:56.568Z,100.00
2022-11-15T04:29:36.364Z,100.00
2022-11-15T04:32:04.555Z,100.00
2022-11-15T04:34:33.731Z,100.00
2022-11-15T04:37:13.682Z,100.00
2022-11-15T04:39:41.629Z,100.00
2022-11-15T04:42:11.723Z,100.00
2022-11-15T04:44:39.438Z,100.00
2022-11-15T04:47:07.122Z,100.00
2022-11-15T04:49:37.737Z,100.00
2022-11-15T04:52:06.878Z,100.00
2022-11-15T04:54:34.519Z,100.00
2022-11-15T04:57:02.243Z,100.00
2022-11-15T04:59:32.826Z,100.00
2022-11-15T05:02:00.531Z,100.00
2022-11-15T05:04:27.389Z,100.00
2022-11-15T05:06:55.131Z,100.00
2022-11-15T05:09:24.760Z,100.00
2022-11-15T05:11:52.957Z,100.00
2022-11-15T05:14:20.628Z,100.00
2022-11-15T05:16:48.304Z,100.00
2022-11-15T05:19:16.114Z,100.00
2022-11-15T05:21:43.788Z,100.00
2022-11-15T05:24:12.244Z,100.00
2022-11-15T05:26:43.981Z,100.00
2022-11-15T05:29:14.934Z,100.00
2022-11-15T05:31:43.452Z,100.00
2022-11-15T05:34:11.991Z,100.00
2022-11-15T05:36:43.230Z,100.00
2022-11-15T05:39:11.039Z,100.00
2022-11-15T05:41:42.017Z,100.00
2022-11-15T05:44:17.006Z,100.00
2022-11-15T05:46:45.768Z,100.00
2022-11-15T05:49:17.301Z,100.00
2022-11-15T05:51:45.956Z,100.00
2022-11-15T05:54:13.867Z,100.00
2022-11-15T05:56:41.774Z,100.00
2022-11-15T05:59:12.977Z,100.00
2022-11-15T06:01:41.673Z,100.00
2022-11-15T06:04:11.069Z,100.00
2022-11-15T06:06:38.709Z,100.00
2022-11-15T06:09:06.405Z,100.00
2022-11-15T06:11:34.076Z,100.00
2022-11-15T06:14:01.743Z,100.00
2022-11-15T06:16:31.285Z,100.00
2022-11-15T06:18:59.217Z,100.00
2022-11-15T06:21:28.769Z,100.00
2022-11-15T06:23:56.623Z,100.00
2022-11-15T06:26:24.347Z,100.00
2022-11-15T06:28:52.031Z,100.00
2022-11-15T06:31:24.842Z,100.00
2022-11-15T06:33:53.841Z,100.00
2022-11-15T06:36:21.679Z,100.00
2022-11-15T06:38:51.939Z,100.00
2022-11-15T06:41:19.829Z,100.00
2022-11-15T06:43:47.480Z,100.00
2022-11-15T06:46:15.142Z,100.00
2022-11-15T06:48:42.830Z,100.00
2022-11-15T06:51:11.879Z,100.00
2022-11-15T06:53:39.508Z,100.00
2022-11-15T06:56:10.006Z,100.00
2022-11-15T06:58:38.108Z,100.00
2022-11-15T07:01:10.489Z,100.00
2022-11-15T07:03:41.971Z,100.00
2022-11-15T07:06:14.022Z,100.00
2022-11-15T07:08:42.603Z,100.00
2022-11-15T07:11:10.530Z,100.00
2022-11-15T07:13:38.927Z,100.00
2022-11-15T07:16:08.271Z,100.00
2022-11-15T07:18:36.364Z,100.00
2022-11-15T07:21:05.034Z,100.00
2022-11-15T07:23:34.538Z,100.00
2022-11-15T07:26:02.545Z,100.00
2022-11-15T07:28:30.775Z,100.00
2022-11-15T07:30:58.762Z,100.00
2022-11-15T07:33:26.439Z,100.00
2022-11-15T07:35:54.078Z,100.00
2022-11-15T07:38:21.730Z,100.00
2022-11-15T07:40:58.343Z,100.00
2022-11-15T07:43:29.488Z,100.00
2022-11-15T07:45:59.543Z,100.00
2022-11-15T07:48:40.211Z,100.00
2022-11-15T07:51:14.380Z,100.00
2022-11-15T07:53:42.359Z,100.00
2022-11-15T07:56:12.175Z,100.00
2022-11-15T07:58:42.840Z,100.00
2022-11-15T08:01:12.118Z,100.00
2022-11-15T08:03:40.196Z,100.00
2022-11-15T08:06:08.142Z,100.00
2022-11-15T08:08:35.882Z,100.00
2022-11-15T08:11:04.241Z,100.00
2022-11-15T08:13:33.668Z,100.00
2022-11-15T08:16:01.921Z,100.00
2022-11-15T08:18:29.695Z,100.00
2022-11-15T08:21:01.479Z,100.00
2022-11-15T08:23:30.050Z,100.00
2022-11-15T08:26:02.485Z,100.00
2022-11-15T08:28:32.483Z,100.00
2022-11-15T08:31:03.539Z,100.00
2022-11-15T08:33:31.966Z,100.00
2022-11-15T08:36:00.909Z,100.00
2022-11-15T08:38:30.528Z,100.00
2022-11-15T08:41:03.330Z,100.00
2022-11-15T08:43:31.349Z,100.00
2022-11-15T08:46:00.891Z,100.00
2022-11-15T08:48:28.833Z,100.00
2022-11-15T08:50:57.104Z,100.00
2022-11-15T08:53:25.068Z,100.00
2022-11-15T08:55:52.810Z,100.00
2022-11-15T08:58:22.473Z,100.00
2022-11-15T09:00:50.211Z,100.00
2022-11-15T09:03:19.255Z,100.00
2022-11-15T09:05:46.962Z,100.00
2022-11-15T09:08:45.649Z,100.00
2022-11-15T09:11:06.687Z,100.00
2022-11-15T09:13:35.128Z,100.00
2022-11-15T09:16:03.487Z,100.00
2022-11-15T09:18:33.344Z,100.00
2022-11-15T09:21:04.687Z,100.00
2022-11-15T09:23:32.516Z,100.00
2022-11-15T09:26:04.545Z,100.00
2022-11-15T09:28:34.101Z,100.00
2022-11-15T09:31:09.001Z,100.00
2022-11-15T09:33:38.414Z,100.00
2022-11-15T09:36:10.395Z,100.00
2022-11-15T09:38:38.925Z,100.00
2022-11-15T09:41:26.419Z,100.00
2022-11-15T09:44:09.345Z,100.00
2022-11-15T09:46:46.611Z,100.00
2022-11-15T09:49:17.477Z,100.00
2022-11-15T09:51:48.608Z,100.00
2022-11-15T09:57:19.437Z,100.00
2022-11-15T10:00:23.873Z,100.00
2022-11-15T10:03:02.795Z,100.00
2022-11-15T10:05:34.022Z,100.00
2022-11-15T10:08:15.024Z,100.00
2022-11-15T10:10:45.646Z,100.00
2022-11-15T10:13:21.642Z,100.00
2022-11-15T10:15:51.378Z,100.00
2022-11-15T10:18:23.295Z,100.00
2022-11-15T10:20:57.596Z,92.93
2022-11-15T10:23:27.307Z,85.50
2022-11-15T10:26:00.034Z,93.14
2022-11-15T10:28:32.390Z,100.00
2022-11-15T10:31:01.896Z,100.00
2022-11-15T10:33:35.694Z,100.00
2022-11-15T10:36:24.763Z,86.65
2022-11-15T10:38:59.935Z,88.30
2022-11-15T10:41:38.397Z,83.01
2022-11-15T10:44:14.240Z,83.42
2022-11-15T10:46:47.046Z,85.53
2022-11-15T10:49:17.794Z,83.68
2022-11-15T10:51:50.409Z,87.07
2022-11-15T10:54:27.680Z,85.11
2022-11-15T10:56:57.890Z,82.55
2022-11-15T10:59:37.763Z,81.96
2022-11-15T11:02:35.582Z,72.80
2022-11-15T11:05:03.336Z,74.62
2022-11-15T11:07:34.604Z,75.26
2022-11-15T11:10:29.029Z,74.25
2022-11-15T11:12:54.938Z,74.98
2022-11-15T11:15:28.953Z,76.61
2022-11-15T11:18:07.394Z,74.91
2022-11-15T11:20:40.515Z,74.51
2022-11-15T11:23:29.091Z,73.33
2022-11-15T11:26:07.232Z,75.90
2022-11-15T11:28:44.150Z,77.51
2022-11-15T11:31:27.272Z,70.63
2022-11-15T11:34:06.703Z,72.16
2022-11-15T11:36:42.366Z,71.41
2022-11-15T11:39:23.172Z,71.43
2022-11-15T11:42:09.019Z,70.72
2022-11-15T11:44:45.793Z,69.24
2022-11-15T11:47:18.602Z,71.00
2022-11-15T11:49:51.762Z,70.63
2022-11-15T11:52:24.125Z,68.19
2022-11-15T11:55:00.031Z,69.16
2022-11-15T11:57:37.994Z,70.41
2022-11-15T12:00:16.375Z,66.10
2022-11-15T12:02:47.033Z,65.22
2022-11-15T12:05:20.262Z,68.09
2022-11-15T12:07:51.793Z,67.44
2022-11-15T12:10:26.295Z,63.92
2022-11-15T12:13:02.080Z,67.83
2022-11-15T12:15:33.639Z,65.09
2022-11-15T12:18:03.504Z,66.32
2022-11-15T12:20:35.827Z,69.22
2022-11-15T12:23:11.470Z,67.04
2022-11-15T12:25:47.999Z,71.60
2022-11-15T12:28:20.612Z,69.53
2022-11-15T12:30:53.962Z,67.97
2022-11-15T12:33:38.150Z,66.48
2022-11-15T12:36:12.400Z,70.92
2022-11-15T12:38:58.905Z,70.89
2022-11-15T12:41:29.638Z,69.73
2022-11-15T12:44:01.429Z,68.92
2022-11-15T12:47:01.790Z,75.12
2022-11-15T12:49:49.142Z,75.27
2022-11-15T12:52:21.677Z,73.98
2022-11-15T12:55:40.020Z,75.33
2022-11-15T12:58:31.298Z,72.38
2022-11-15T13:01:02.005Z,70.98
2022-11-15T13:03:30.924Z,74.71
2022-11-15T13:06:02.117Z,76.62
2022-11-15T13:08:51.811Z,76.09
2022-11-15T13:11:59.270Z,80.48
2022-11-15T13:14:51.759Z,75.96
2022-11-15T13:17:37.217Z,80.98
2022-11-15T13:20:26.873Z,80.90
2022-11-15T13:23:03.052Z,79.27
2022-11-15T13:26:01.921Z,77.33
2022-11-15T13:28:35.131Z,77.47
2022-11-15T13:31:21.491Z,77.84
2022-11-15T13:33:49.352Z,74.62
2022-11-15T13:36:22.389Z,66.25
2022-11-15T13:38:57.596Z,62.98
2022-11-15T13:41:26.610Z,65.27
2022-11-15T13:43:55.857Z,57.76
2022-11-15T13:46:26.251Z,51.16
2022-11-15T13:48:56.888Z,48.88
2022-11-15T13:51:35.331Z,48.01
2022-11-15T13:54:15.826Z,48.50
2022-11-15T13:56:46.586Z,51.93
2022-11-15T13:59:20.769Z,56.16
2022-11-15T14:01:51.672Z,57.64
2022-11-15T14:04:22.171Z,61.24
2022-11-15T14:07:00.095Z,66.63
2022-11-15T14:09:36.427Z,68.60
2022-11-15T14:12:23.732Z,75.93
2022-11-15T14:14:51.600Z,73.76
2022-11-15T14:17:37.780Z,74.65
2022-11-15T14:20:29.348Z,88.33
2022-11-15T14:22:59.650Z,96.61
2022-11-15T14:25:33.245Z,100.00
2022-11-15T14:28:34.989Z,100.00
2022-11-15T14:31:03.187Z,100.00
2022-11-15T14:33:33.945Z,100.00
2022-11-15T14:36:07.386Z,100.00
2022-11-15T14:38:35.854Z,100.00
2022-11-15T14:41:03.752Z,100.00
2022-11-15T14:43:33.035Z,100.00
2022-11-15T14:46:01.303Z,100.00
2022-11-15T14:48:29.998Z,100.00
2022-11-15T14:51:04.252Z,100.00
2022-11-15T14:53:34.372Z,100.00
2022-11-15T14:56:02.012Z,100.00
2022-11-15T14:58:29.844Z,100.00
2022-11-15T15:01:07.592Z,100.00
2022-11-15T15:03:37.048Z,100.00
2022-11-15T15:06:12.386Z,100.00
2022-11-15T15:08:44.194Z,100.00
2022-11-15T15:11:18.969Z,100.00
2022-11-15T15:13:49.558Z,100.00
2022-11-15T15:16:19.979Z,100.00
2022-11-15T15:18:52.415Z,100.00
2022-11-15T15:21:35.371Z,100.00
2022-11-15T15:24:04.416Z,100.00
2022-11-15T15:26:34.597Z,100.00
2022-11-15T15:29:02.265Z,100.00
2022-11-15T15:31:32.026Z,100.00
2022-11-15T15:33:59.701Z,100.00
2022-11-15T15:36:29.127Z,100.00
2022-11-15T15:39:00.116Z,100.00
2022-11-15T15:41:28.051Z,100.00
2022-11-15T15:43:56.979Z,100.00
2022-11-15T15:46:24.744Z,100.00
2022-11-15T15:48:52.413Z,100.00
2022-11-15T15:51:20.847Z,100.00
2022-11-15T15:53:53.722Z,100.00
2022-11-15T15:56:21.386Z,100.00
2022-11-15T15:58:49.061Z,100.00
2022-11-15T16:01:16.742Z,100.00
2022-11-15T16:03:44.454Z,100.00
2022-11-15T16:06:37.254Z,100.00
2022-11-15T16:09:16.155Z,100.00
2022-11-15T16:11:45.932Z,100.00
2022-11-15T16:14:13.875Z,100.00
2022-11-15T16:16:41.532Z,100.00
2022-11-15T16:19:12.380Z,100.00
2022-11-15T16:21:40.044Z,100.00
2022-11-15T16:24:09.091Z,100.00
2022-11-15T16:26:37.772Z,100.00
2022-11-15T16:29:05.475Z,100.00
2022-11-15T16:31:33.106Z,100.00
2022-11-15T16:34:00.991Z,100.00
2022-11-15T16:36:33.044Z,100.00
2022-11-15T16:39:01.192Z,100.00
2022-11-15T16:41:30.680Z,100.00
2022-11-15T16:43:58.564Z,100.00
2022-11-15T16:46:27.629Z,100.00
2022-11-15T16:48:55.676Z,100.00
2022-11-15T16:51:24.261Z,100.00
2022-11-15T16:53:51.949Z,100.00
2022-11-15T16:56:28.339Z,100.00
2022-11-15T16:58:59.770Z,100.00
2022-11-15T17:01:28.840Z,100.00
2022-11-15T17:03:57.034Z,100.00
2022-11-15T17:06:26.057Z,100.00
2022-11-15T17:08:53.988Z,100.00
2022-11-15T17:11:23.222Z,100.00
2022-11-15T17:13:50.945Z,100.00
2022-11-15T17:16:19.970Z,100.00
2022-11-15T17:18:52.113Z,100.00
2022-11-15T17:21:22.339Z,100.00
2022-11-15T17:23:50.661Z,100.00
2022-11-15T17:26:29.645Z,100.00
2022-11-15T17:29:00.935Z,100.00
2022-11-15T17:31:31.205Z,100.00
2022-11-15T17:33:58.872Z,100.00
2022-11-15T17:36:26.499Z,100.00
2022-11-15T17:38:59.078Z,100.00
2022-11-15T17:41:27.582Z,100.00
2022-11-15T17:43:57.877Z,100.00
2022-11-15T17:46:25.600Z,100.00
2022-11-15T17:48:56.264Z,100.00
2022-11-15T17:51:24.191Z,100.00
2022-11-15T17:53:52.874Z,100.00
2022-11-15T17:56:22.598Z,100.00
2022-11-15T17:58:51.022Z,100.00
2022-11-15T18:01:21.708Z,100.00
2022-11-15T18:03:50.402Z,100.00
2022-11-15T18:06:20.945Z,100.00
2022-11-15T18:08:51.050Z,100.00
2022-11-15T18:11:20.821Z,100.00
2022-11-15T18:13:53.424Z,100.00
2022-11-15T18:16:26.012Z,100.00
2022-11-15T18:18:54.533Z,100.00
2022-11-15T18:21:25.261Z,100.00
2022-11-15T18:23:55.570Z,100.00
2022-11-15T18:26:27.096Z,100.00
2022-11-15T18:28:58.753Z,100.00
2022-11-15T18:31:28.433Z,100.00
2022-11-15T18:33:56.445Z,100.00
2022-11-15T18:36:27.770Z,100.00
2022-11-15T18:38:56.553Z,100.00
2022-11-15T18:41:28.216Z,100.00
2022-11-15T18:43:56.491Z,100.00
2022-11-15T18:46:26.294Z,100.00
2022-11-15T18:48:55.240Z,100.00
2022-11-15T18:51:26.175Z,100.00
2022-11-15T18:53:54.913Z,100.00
2022-11-15T18:56:24.103Z,100.00
2022-11-15T18:58:55.100Z,100.00
2022-11-15T19:01:25.687Z,100.00
2022-11-15T19:03:55.275Z,100.00
2022-11-15T19:06:26.367Z,100.00
2022-11-15T19:08:56.292Z,100.00
2022-11-15T19:11:28.006Z,100.00
2022-11-15T19:13:56.751Z,100.00
2022-11-15T19:16:25.261Z,100.00
2022-11-15T19:18:55.637Z,100.00
2022-11-15T19:21:25.528Z,100.00
2022-11-15T19:23:54.227Z,100.00
2022-11-15T19:26:23.937Z,100.00
2022-11-15T19:28:53.376Z,100.00
2022-11-15T19:31:23.527Z,100.00
2022-11-15T19:33:54.053Z,100.00
2022-11-15T19:36:23.280Z,100.00
2022-11-15T19:38:52.369Z,100.00
2022-11-15T19:41:21.579Z,100.00
2022-11-15T19:43:51.948Z,100.00
2022-11-15T19:46:21.884Z,100.00
2022-11-15T19:48:50.305Z,100.00
2022-11-15T19:51:21.493Z,100.00
2022-11-15T19:53:49.210Z,100.00
2022-11-15T19:56:19.634Z,100.00
2022-11-15T19:58:47.932Z,100.00
2022-11-15T20:01:19.017Z,100.00
2022-11-15T20:03:47.675Z,100.00
2022-11-15T20:06:16.910Z,100.00
2022-11-15T20:08:45.196Z,100.00
2022-11-15T20:11:13.943Z,100.00
2022-11-15T20:13:45.313Z,100.00
2022-11-15T20:16:17.659Z,100.00
2022-11-15T20:18:45.499Z,100.00
2022-11-15T20:21:13.477Z,100.00
2022-11-15T20:23:41.224Z,100.00
2022-11-15T20:26:09.449Z,100.00
2022-11-15T20:28:39.001Z,100.00
2022-11-15T20:31:09.346Z,100.00
2022-11-15T20:33:37.027Z,100.00
2022-11-15T20:36:05.962Z,100.00
2022-11-15T20:38:34.493Z,100.00
2022-11-15T20:41:02.583Z,100.00
2022-11-15T20:43:30.433Z,100.00
2022-11-15T20:45:58.280Z,100.00
2022-11-15T20:48:27.422Z,100.00
2022-11-15T20:51:06.892Z,100.00
2022-11-15T20:53:35.160Z,100.00
2022-11-15T20:56:08.324Z,100.00
2022-11-15T20:58:36.493Z,100.00
2022-11-15T21:01:04.753Z,100.00
2022-11-15T21:03:34.561Z,100.00
2022-11-15T21:06:02.270Z,100.00
2022-11-15T21:08:49.757Z,100.00
2022-11-15T21:11:34.958Z,100.00
2022-11-15T21:14:07.716Z,100.00
2022-11-15T21:16:36.901Z,100.00
2022-11-15T21:19:06.598Z,100.00
2022-11-15T21:21:34.621Z,100.00
2022-11-15T21:24:03.792Z,100.00
2022-11-15T21:26:31.517Z,100.00
2022-11-15T21:28:59.225Z,100.00
2022-11-15T21:31:27.009Z,100.00
2022-11-15T21:33:54.699Z,100.00
2022-11-15T21:36:25.024Z,100.00
2022-11-15T21:38:53.605Z,100.00
2022-11-15T21:41:21.410Z,100.00
2022-11-15T21:43:49.072Z,100.00
2022-11-15T21:46:16.740Z,100.00
2022-11-15T21:48:44.528Z,100.00
2022-11-15T21:51:12.766Z,100.00
2022-11-15T21:53:42.102Z,100.00
2022-11-15T21:56:11.829Z,100.00
2022-11-15T21:58:40.488Z,100.00
2022-11-15T22:01:26.740Z,100.00
2022-11-15T22:03:54.422Z,100.00
2022-11-15T22:06:22.213Z,100.00
2022-11-15T22:08:51.233Z,100.00
2022-11-15T22:11:18.902Z,100.00
2022-11-15T22:13:46.593Z,100.00
2022-11-15T22:16:14.315Z,100.00
2022-11-15T22:18:42.126Z,100.00
2022-11-15T22:21:13.702Z,100.00
2022-11-15T22:23:42.134Z,100.00
2022-11-15T22:26:13.171Z,100.00
2022-11-15T22:28:41.115Z,100.00
2022-11-15T22:31:09.595Z,100.00
2022-11-15T22:33:37.989Z,100.00
2022-11-15T22:36:07.241Z,100.00
2022-11-15T22:38:35.291Z,100.00
2022-11-15T22:41:03.766Z,100.00
2022-11-15T22:43:32.944Z,100.00
2022-11-15T22:46:02.441Z,100.00
2022-11-15T22:48:33.971Z,100.00
2022-11-15T22:51:02.677Z,100.00
2022-11-15T22:53:31.249Z,100.00
2022-11-15T22:56:00.852Z,100.00
2022-11-15T23:04:04.475Z,100.00
2022-11-15T23:06:32.304Z,100.00
2022-11-15T23:09:00.153Z,100.00
2022-11-15T23:11:45.246Z,100.00
2022-11-15T23:14:13.065Z,100.00
2022-11-15T23:16:40.914Z,100.00
2022-11-15T23:19:11.838Z,100.00
2022-11-15T23:21:58.743Z,100.00
2022-11-15T23:24:27.402Z,100.00
2022-11-15T23:26:57.261Z,100.00
2022-11-15T23:29:26.618Z,100.00
2022-11-15T23:32:27.899Z,100.00
2022-11-15T23:34:57.106Z,100.00
2022-11-15T23:37:24.884Z,100.00
2022-11-15T23:39:53.202Z,100.00
2022-11-15T23:42:21.506Z,100.00
2022-11-15T23:44:50.701Z,100.00
2022-11-15T23:47:19.511Z,100.00
2022-11-15T23:49:50.856Z,100.00
2022-11-15T23:52:24.542Z,100.00
2022-11-15T23:54:52.457Z,100.00
2022-11-15T23:57:20.315Z,100.00
2022-11-15T23:59:50.106Z,100.00
